Time,TemperatureF,DewpointF,PressureIn,WindDirection,WindDirectionDegrees,WindSpeedMPH,WindSpeedGustMPH,Humidity,HourlyPrecipIn,Conditions,Clouds,dailyrainin,SoftwareType,DateUTC
2013-04-16 00:06:00,-999.0,-99.9,30.29,North,-999,-999.0,-999.0,-999,-99.99,,,0.00,weatherlink.com 1.10,2013-04-16 04:06:00,
2013-04-16 00:21:00,-999.0,-99.9,30.29,North,-999,-999.0,-999.0,-999,-99.99,,,0.00,weatherlink.com 1.10,2013-04-16 04:21:00,
2013-04-16 00:36:00,-999.0,-99.9,30.29,North,-999,-999.0,-999.0,-999,-99.99,,,0.00,weatherlink.com 1.10,2013-04-16 04:36:00,
2013-04-16 00:51:00,-999.0,-99.9,30.29,North,-999,-999.0,-999.0,-999,-99.99,,,0.00,weatherlink.com 1.10,2013-04-16 04:51:00,
2013-04-16 01:06:00,-999.0,-99.9,30.28,North,-999,-999.0,-999.0,-999,-99.99,,,0.00,weatherlink.com 1.10,2013-04-16 05:06:00,
2013-04-16 01:21:00,-999.0,-99.9,30.28,North,-999,-999.0,-999.0,-999,-99.99,,,0.00,weatherlink.com 1.10,2013-04-16 05:21:00,
2013-04-16 01:36:00,-999.0,-99.9,30.27,North,-999,-999.0,-999.0,-999,-99.99,,,0.00,weatherlink.com 1.10,2013-04-16 05:36:00,
2013-04-16 01:51:00,-999.0,-99.9,30.27,North,-999,-999.0,-999.0,-999,-99.99,,,0.00,weatherlink.com 1.10,2013-04-16 05:51:00,
2013-04-16 02:06:00,-999.0,-99.9,30.26,North,-999,-999.0,-999.0,-999,-99.99,,,0.00,weatherlink.com 1.10,2013-04-16 06:06:00,
2013-04-16 02:21:00,-999.0,-99.9,30.26,North,-999,-999.0,-999.0,-999,-99.99,,,0.00,weatherlink.com 1.10,2013-04-16 06:21:00,
2013-04-16 02:36:00,-999.0,-99.9,30.26,North,-999,-999.0,-999.0,-999,-99.99,,,0.00,weatherlink.com 1.10,2013-04-16 06:36:00,
2013-04-16 02:51:00,-999.0,-99.9,30.26,North,-999,-999.0,-999.0,-999,-99.99,,,0.00,weatherlink.com 1.10,2013-04-16 06:51:00,
2013-04-16 03:14:00,-999.0,-99.9,30.26,North,-999,-999.0,-999.0,-999,-99.99,,,0.00,weatherlink.com 1.10,2013-04-16 07:14:00,
2013-04-16 03:21:00,-999.0,-99.9,30.26,North,-999,-999.0,-999.0,-999,-99.99,,,0.00,weatherlink.com 1.10,2013-04-16 07:21:00,
2013-04-16 03:51:00,-999.0,-99.9,30.27,North,-999,-999.0,-999.0,-999,-99.99,,,0.00,weatherlink.com 1.10,2013-04-16 07:51:00,
2013-04-16 04:06:00,-999.0,-99.9,30.26,North,-999,-999.0,-999.0,-999,-99.99,,,0.00,weatherlink.com 1.10,2013-04-16 08:06:00,
2013-04-16 04:21:00,-999.0,-99.9,30.26,North,-999,-999.0,-999.0,-999,-99.99,,,0.00,weatherlink.com 1.10,2013-04-16 08:21:00,
2013-04-16 04:36:00,-999.0,-99.9,30.26,North,-999,-999.0,-999.0,-999,-99.99,,,0.00,weatherlink.com 1.10,2013-04-16 08:36:00,
2013-04-16 04:51:00,-999.0,-99.9,30.26,North,-999,-999.0,-999.0,-999,-99.99,,,0.00,weatherlink.com 1.10,2013-04-16 08:51:00,
2013-04-16 05:06:00,-999.0,-99.9,30.26,North,-999,-999.0,-999.0,-999,-99.99,,,0.00,weatherlink.com 1.10,2013-04-16 09:06:00,
2013-04-16 05:21:00,-999.0,-99.9,30.26,North,-999,-999.0,-999.0,-999,-99.99,,,0.00,weatherlink.com 1.10,2013-04-16 09:21:00,
2013-04-16 05:36:00,-999.0,-99.9,30.26,North,-999,-999.0,-999.0,-999,-99.99,,,0.00,weatherlink.com 1.10,2013-04-16 09:36:00,
2013-04-16 05:51:00,-999.0,-99.9,30.26,North,-999,-999.0,-999.0,-999,-99.99,,,0.00,weatherlink.com 1.10,2013-04-16 09:51:00,
2013-04-16 06:06:00,-999.0,-99.9,30.27,North,-999,-999.0,-999.0,-999,-99.99,,,0.00,weatherlink.com 1.10,2013-04-16 10:06:00,
2013-04-16 06:21:00,-999.0,-99.9,30.27,North,-999,-999.0,-999.0,-999,-99.99,,,0.00,weatherlink.com 1.10,2013-04-16 10:21:00,
2013-04-16 06:36:00,-999.0,-99.9,30.27,North,-999,-999.0,-999.0,-999,-99.99,,,0.00,weatherlink.com 1.10,2013-04-16 10:36:00,
2013-04-16 06:51:00,-999.0,-99.9,30.27,North,-999,-999.0,-999.0,-999,-99.99,,,0.00,weatherlink.com 1.10,2013-04-16 10:51:00,
2013-04-16 07:06:00,-999.0,-99.9,30.27,North,-999,-999.0,-999.0,-999,-99.99,,,0.00,weatherlink.com 1.10,2013-04-16 11:06:00,
2013-04-16 07:21:00,-999.0,-99.9,30.28,North,-999,-999.0,-999.0,-999,-99.99,,,0.00,weatherlink.com 1.10,2013-04-16 11:21:00,
2013-04-16 07:36:00,-999.0,-99.9,30.29,North,-999,-999.0,-999.0,-999,-99.99,,,0.00,weatherlink.com 1.10,2013-04-16 11:36:00,
2013-04-16 07:51:00,-999.0,-99.9,30.29,North,-999,-999.0,-999.0,-999,-99.99,,,0.00,weatherlink.com 1.10,2013-04-16 11:51:00,
2013-04-16 08:06:00,55.3,-99.9,30.29,South,187,12.0,-999.0,-999,-99.99,,,0.00,weatherlink.com 1.10,2013-04-16 12:06:00,
2013-04-16 08:21:00,56.5,51.0,30.29,South,187,10.0,-999.0,82,-99.99,,,0.00,weatherlink.com 1.10,2013-04-16 12:21:00,
2013-04-16 08:36:00,57.0,51.0,30.30,South,177,9.0,-999.0,81,-99.99,,,0.00,weatherlink.com 1.10,2013-04-16 12:36:00,
2013-04-16 08:51:00,57.8,52.0,30.30,South,188,15.0,-999.0,81,-99.99,,,0.00,weatherlink.com 1.10,2013-04-16 12:51:00,
2013-04-16 09:06:00,58.6,53.0,30.29,South,190,10.0,-999.0,81,-99.99,,,0.00,weatherlink.com 1.10,2013-04-16 13:06:00,
2013-04-16 09:21:00,58.6,52.0,30.29,SSE,157,8.0,-999.0,80,-99.99,,,0.00,weatherlink.com 1.10,2013-04-16 13:21:00,
2013-04-16 09:36:00,59.4,53.0,30.30,SSE,159,5.0,-999.0,80,-99.99,,,0.00,weatherlink.com 1.10,2013-04-16 13:36:00,
2013-04-16 09:51:00,60.0,53.0,30.30,SSW,207,8.0,-999.0,79,-99.99,,,0.00,weatherlink.com 1.10,2013-04-16 13:51:00,
2013-04-16 10:06:00,60.5,54.0,30.30,South,190,5.0,-999.0,79,-99.99,,,0.00,weatherlink.com 1.10,2013-04-16 14:06:00,
2013-04-16 10:21:00,61.6,55.0,30.30,SSE,157,2.0,-999.0,79,-99.99,,,0.00,weatherlink.com 1.10,2013-04-16 14:21:00,
2013-04-16 10:36:00,61.2,54.0,30.30,South,180,19.0,-999.0,78,-99.99,,,0.00,weatherlink.com 1.10,2013-04-16 14:36:00,
2013-04-16 10:51:00,61.8,55.0,30.29,South,188,8.0,-999.0,77,-99.99,,,0.00,weatherlink.com 1.10,2013-04-16 14:51:00,
2013-04-16 11:06:00,61.8,55.0,30.29,SSW,192,11.0,-999.0,79,-99.99,,,0.00,weatherlink.com 1.10,2013-04-16 15:06:00,
2013-04-16 11:21:00,62.0,55.0,30.29,South,184,16.0,-999.0,78,-99.99,,,0.00,weatherlink.com 1.10,2013-04-16 15:21:00,
2013-04-16 11:36:00,63.4,56.0,30.29,SSW,197,7.0,-999.0,76,-99.99,,,0.00,weatherlink.com 1.10,2013-04-16 15:36:00,
2013-04-16 11:51:00,63.9,56.0,30.28,South,183,7.0,-999.0,76,-99.99,,,0.00,weatherlink.com 1.10,2013-04-16 15:51:00,
2013-04-16 12:06:00,64.4,56.0,30.27,SSW,200,12.0,-999.0,75,-99.99,,,0.00,weatherlink.com 1.10,2013-04-16 16:06:00,
2013-04-16 12:21:00,65.4,57.0,30.28,SSW,203,10.0,-999.0,74,-99.99,,,0.00,weatherlink.com 1.10,2013-04-16 16:21:00,
2013-04-16 12:36:00,67.6,58.0,30.27,South,169,6.0,-999.0,72,-99.99,,,0.00,weatherlink.com 1.10,2013-04-16 16:36:00,
2013-04-16 13:21:00,68.6,58.0,30.26,South,187,10.0,-999.0,68,-99.99,,,0.00,weatherlink.com 1.10,2013-04-16 17:21:00,
2013-04-16 13:36:00,67.5,58.0,30.25,South,171,8.0,-999.0,71,-99.99,,,0.00,weatherlink.com 1.10,2013-04-16 17:36:00,
2013-04-16 13:51:00,68.1,58.0,30.25,South,169,15.0,-999.0,69,-99.99,,,0.00,weatherlink.com 1.10,2013-04-16 17:51:00,
2013-04-16 14:06:00,68.0,58.0,30.24,SSE,156,0.0,-999.0,70,-99.99,,,0.00,weatherlink.com 1.10,2013-04-16 18:06:00,
2013-04-16 14:21:00,67.6,57.0,30.24,SSW,192,11.0,-999.0,69,-99.99,,,0.00,weatherlink.com 1.10,2013-04-16 18:21:00,
2013-04-16 14:36:00,68.3,58.0,30.23,South,176,9.0,-999.0,69,-99.99,,,0.00,weatherlink.com 1.10,2013-04-16 18:36:00,
2013-04-16 14:51:00,67.7,57.0,30.23,SSE,159,11.0,-999.0,69,-99.99,,,0.00,weatherlink.com 1.10,2013-04-16 18:51:00,
2013-04-16 15:06:00,68.1,58.0,30.23,SSW,194,11.0,-999.0,69,-99.99,,,0.00,weatherlink.com 1.10,2013-04-16 19:06:00,
2013-04-16 15:21:00,67.5,57.0,30.21,South,188,16.0,-999.0,69,-99.99,,,0.00,weatherlink.com 1.10,2013-04-16 19:21:00,
2013-04-16 15:36:00,68.7,58.0,30.21,SSW,193,11.0,-999.0,68,-99.99,,,0.00,weatherlink.com 1.10,2013-04-16 19:36:00,
2013-04-16 15:51:00,67.7,57.0,30.20,South,174,7.0,-999.0,69,-99.99,,,0.00,weatherlink.com 1.10,2013-04-16 19:51:00,
2013-04-16 16:06:00,67.5,57.0,30.20,South,184,11.0,-999.0,70,-99.99,,,0.00,weatherlink.com 1.10,2013-04-16 20:06:00,
2013-04-16 16:21:00,67.4,58.0,30.19,SSW,205,10.0,-999.0,71,-99.99,,,0.00,weatherlink.com 1.10,2013-04-16 20:21:00,
2013-04-16 16:36:00,67.7,57.0,30.18,South,171,9.0,-999.0,69,-99.99,,,0.00,weatherlink.com 1.10,2013-04-16 20:36:00,
2013-04-16 16:51:00,67.3,57.0,30.18,SSW,196,10.0,-999.0,69,-99.99,,,0.00,weatherlink.com 1.10,2013-04-16 20:51:00,
2013-04-16 17:06:00,67.9,57.0,30.19,South,187,10.0,-999.0,69,-99.99,,,0.00,weatherlink.com 1.10,2013-04-16 21:06:00,
2013-04-16 17:21:00,68.3,57.0,30.19,SE,146,5.0,-999.0,68,-99.99,,,0.00,weatherlink.com 1.10,2013-04-16 21:21:00,
2013-04-16 17:36:00,68.0,57.0,30.18,SSW,202,11.0,-999.0,68,-99.99,,,0.00,weatherlink.com 1.10,2013-04-16 21:36:00,
2013-04-16 17:51:00,67.7,57.0,30.18,SSW,192,7.0,-999.0,69,-99.99,,,0.00,weatherlink.com 1.10,2013-04-16 21:51:00,
2013-04-16 18:06:00,67.3,57.0,30.18,South,188,12.0,-999.0,69,-99.99,,,0.00,weatherlink.com 1.10,2013-04-16 22:06:00,
2013-04-16 18:21:00,66.7,57.0,30.18,SSW,201,4.0,-999.0,71,-99.99,,,0.00,weatherlink.com 1.10,2013-04-16 22:21:00,
2013-04-16 18:36:00,67.0,56.0,30.18,South,180,6.0,-999.0,68,-99.99,,,0.00,weatherlink.com 1.10,2013-04-16 22:36:00,
2013-04-16 18:51:00,-999.0,-99.9,30.18,North,-999,-999.0,-999.0,-999,-99.99,,,0.00,weatherlink.com 1.10,2013-04-16 22:51:00,
2013-04-16 19:07:00,-999.0,-99.9,30.17,North,-999,-999.0,-999.0,-999,-99.99,,,0.00,weatherlink.com 1.10,2013-04-16 23:07:00,
2013-04-16 19:21:00,-999.0,-99.9,30.17,North,-999,-999.0,-999.0,-999,-99.99,,,0.00,weatherlink.com 1.10,2013-04-16 23:21:00,
2013-04-16 19:36:00,-999.0,-99.9,30.17,North,-999,-999.0,-999.0,-999,-99.99,,,0.00,weatherlink.com 1.10,2013-04-16 23:36:00,
2013-04-16 19:51:00,-999.0,-99.9,30.17,North,-999,-999.0,-999.0,-999,-99.99,,,0.00,weatherlink.com 1.10,2013-04-16 23:51:00,
2013-04-16 20:06:00,-999.0,-99.9,30.16,North,-999,-999.0,-999.0,-999,-99.99,,,0.00,weatherlink.com 1.10,2013-04-17 00:06:00,
2013-04-16 20:21:00,-999.0,-99.9,30.15,North,-999,-999.0,-999.0,-999,-99.99,,,0.00,weatherlink.com 1.10,2013-04-17 00:21:00,
2013-04-16 20:36:00,-999.0,-99.9,30.14,North,-999,-999.0,-999.0,-999,-99.99,,,0.00,weatherlink.com 1.10,2013-04-17 00:36:00,
2013-04-16 21:06:00,-999.0,-99.9,30.13,North,-999,-999.0,-999.0,-999,-99.99,,,0.00,weatherlink.com 1.10,2013-04-17 01:06:00,
2013-04-16 21:21:00,-999.0,-99.9,30.12,North,-999,-999.0,-999.0,-999,-99.99,,,0.00,weatherlink.com 1.10,2013-04-17 01:21:00,
2013-04-16 21:36:00,-999.0,-99.9,30.12,North,-999,-999.0,-999.0,-999,-99.99,,,0.00,weatherlink.com 1.10,2013-04-17 01:36:00,
2013-04-16 21:51:00,-999.0,-99.9,30.12,North,-999,-999.0,-999.0,-999,-99.99,,,0.00,weatherlink.com 1.10,2013-04-17 01:51:00,
2013-04-16 22:06:00,-999.0,-99.9,30.12,North,-999,-999.0,-999.0,-999,-99.99,,,0.00,weatherlink.com 1.10,2013-04-17 02:06:00,
2013-04-16 22:21:00,-999.0,-99.9,30.14,North,-999,-999.0,-999.0,-999,-99.99,,,0.00,weatherlink.com 1.10,2013-04-17 02:21:00,
2013-04-16 22:36:00,-999.0,-99.9,30.15,North,-999,-999.0,-999.0,-999,-99.99,,,0.00,weatherlink.com 1.10,2013-04-17 02:36:00,
2013-04-16 22:51:00,-999.0,-99.9,30.17,North,-999,-999.0,-999.0,-999,-99.99,,,0.00,weatherlink.com 1.10,2013-04-17 02:51:00,
2013-04-16 23:06:00,-999.0,-99.9,30.16,North,-999,-999.0,-999.0,-999,-99.99,,,0.00,weatherlink.com 1.10,2013-04-17 03:06:00,
2013-04-16 23:21:00,-999.0,-99.9,30.16,North,-999,-999.0,-999.0,-999,-99.99,,,0.00,weatherlink.com 1.10,2013-04-17 03:21:00,
2013-04-16 23:36:00,-999.0,-99.9,30.15,North,-999,-999.0,-999.0,-999,-99.99,,,0.00,weatherlink.com 1.10,2013-04-17 03:36:00,
2013-04-16 23:51:00,-999.0,-99.9,30.15,North,-999,-999.0,-999.0,-999,-99.99,,,0.00,weatherlink.com 1.10,2013-04-17 03:51:00,